sensor_id;sensor_type;location;lat;lon;timestamp;temperature;humidity
18648;DHT22;9453;50.294;18.644;2022-08-01T04:00:42;13.80;99.90
18648;DHT22;9453;50.294;18.644;2022-08-01T04:03:10;13.90;99.90
18648;DHT22;9453;50.294;18.644;2022-08-01T04:05:40;13.90;99.90
18648;DHT22;9453;50.294;18.644;2022-08-01T04:08:07;13.90;99.90
18648;DHT22;9453;50.294;18.644;2022-08-01T04:10:34;13.90;99.90
18648;DHT22;9453;50.294;18.644;2022-08-01T04:13:01;13.90;99.90
18648;DHT22;9453;50.294;18.644;2022-08-01T04:15:28;14.00;99.90
18648;DHT22;9453;50.294;18.644;2022-08-01T04:17:56;14.10;99.90
18648;DHT22;9453;50.294;18.644;2022-08-01T04:20:23;14.10;99.90
18648;DHT22;9453;50.294;18.644;2022-08-01T04:22:50;14.10;99.90
18648;DHT22;9453;50.294;18.644;2022-08-01T04:25:22;14.20;99.90
18648;DHT22;9453;50.294;18.644;2022-08-01T04:27:53;14.30;99.90
18648;DHT22;9453;50.294;18.644;2022-08-01T04:30:24;14.30;99.90
18648;DHT22;9453;50.294;18.644;2022-08-01T04:32:54;14.40;99.90
18648;DHT22;9453;50.294;18.644;2022-08-01T04:35:24;14.40;99.90
18648;DHT22;9453;50.294;18.644;2022-08-01T04:37:53;14.40;99.90
18648;DHT22;9453;50.294;18.644;2022-08-01T04:40:20;14.50;99.90
18648;DHT22;9453;50.294;18.644;2022-08-01T04:42:48;14.60;99.90
18648;DHT22;9453;50.294;18.644;2022-08-01T04:45:16;14.60;99.90
18648;DHT22;9453;50.294;18.644;2022-08-01T04:47:43;14.60;99.90
18648;DHT22;9453;50.294;18.644;2022-08-01T04:50:13;14.70;99.90
18648;DHT22;9453;50.294;18.644;2022-08-01T04:52:41;14.80;99.90
18648;DHT22;9453;50.294;18.644;2022-08-01T04:55:09;14.80;99.90
18648;DHT22;9453;50.294;18.644;2022-08-01T04:57:38;14.90;99.90
18648;DHT22;9453;50.294;18.644;2022-08-01T05:00:07;14.90;99.90
18648;DHT22;9453;50.294;18.644;2022-08-01T05:02:34;15.00;99.90
18648;DHT22;9453;50.294;18.644;2022-08-01T05:05:01;15.00;99.90
18648;DHT22;9453;50.294;18.644;2022-08-01T05:07:28;15.10;99.90
18648;DHT22;9453;50.294;18.644;2022-08-01T05:09:56;15.20;99.90
18648;DHT22;9453;50.294;18.644;2022-08-01T05:12:23;15.20;99.90
18648;DHT22;9453;50.294;18.644;2022-08-01T05:14:50;15.30;99.90
18648;DHT22;9453;50.294;18.644;2022-08-01T05:17:17;15.40;99.90
18648;DHT22;9453;50.294;18.644;2022-08-01T05:19:43;15.40;99.90
18648;DHT22;9453;50.294;18.644;2022-08-01T05:22:10;15.50;99.90
18648;DHT22;9453;50.294;18.644;2022-08-01T05:24:39;15.60;99.90
18648;DHT22;9453;50.294;18.644;2022-08-01T05:27:07;15.60;99.90
18648;DHT22;9453;50.294;18.644;2022-08-01T05:29:34;15.70;99.90
18648;DHT22;9453;50.294;18.644;2022-08-01T05:32:02;15.80;99.90
18648;DHT22;9453;50.294;18.644;2022-08-01T05:34:29;15.90;99.90
18648;DHT22;9453;50.294;18.644;2022-08-01T05:36:55;16.00;99.90
18648;DHT22;9453;50.294;18.644;2022-08-01T05:39:22;16.10;99.90
18648;DHT22;9453;50.294;18.644;2022-08-01T05:41:49;16.10;99.90
18648;DHT22;9453;50.294;18.644;2022-08-01T05:44:17;16.30;99.90
18648;DHT22;9453;50.294;18.644;2022-08-01T05:46:44;16.40;99.90
18648;DHT22;9453;50.294;18.644;2022-08-01T05:49:11;16.50;99.90
18648;DHT22;9453;50.294;18.644;2022-08-01T05:51:38;16.60;99.90
18648;DHT22;9453;50.294;18.644;2022-08-01T05:54:05;16.70;99.90
18648;DHT22;9453;50.294;18.644;2022-08-01T05:56:32;16.80;99.90
18648;DHT22;9453;50.294;18.644;2022-08-01T05:58:59;16.80;99.90
18648;DHT22;9453;50.294;18.644;2022-08-01T06:01:27;16.90;99.90
18648;DHT22;9453;50.294;18.644;2022-08-01T06:03:54;17.00;99.90
18648;DHT22;9453;50.294;18.644;2022-08-01T06:06:21;17.10;99.90
18648;DHT22;9453;50.294;18.644;2022-08-01T06:08:48;17.30;99.90
18648;DHT22;9453;50.294;18.644;2022-08-01T06:11:15;17.40;99.90
18648;DHT22;9453;50.294;18.644;2022-08-01T06:13:42;17.60;99.90
18648;DHT22;9453;50.294;18.644;2022-08-01T06:16:09;17.90;99.90
18648;DHT22;9453;50.294;18.644;2022-08-01T06:18:37;18.20;99.90
18648;DHT22;9453;50.294;18.644;2022-08-01T06:21:04;18.50;99.90
18648;DHT22;9453;50.294;18.644;2022-08-01T06:23:31;18.80;99.90
18648;DHT22;9453;50.294;18.644;2022-08-01T06:25:58;19.00;99.90
18648;DHT22;9453;50.294;18.644;2022-08-01T06:28:25;19.30;99.90
18648;DHT22;9453;50.294;18.644;2022-08-01T06:30:51;19.50;99.90
18648;DHT22;9453;50.294;18.644;2022-08-01T06:33:18;19.60;99.90
18648;DHT22;9453;50.294;18.644;2022-08-01T06:35:47;19.80;99.90
18648;DHT22;9453;50.294;18.644;2022-08-01T06:38:14;19.90;99.90
18648;DHT22;9453;50.294;18.644;2022-08-01T06:40:41;20.00;99.90
18648;DHT22;9453;50.294;18.644;2022-08-01T06:43:08;20.10;99.90
18648;DHT22;9453;50.294;18.644;2022-08-01T06:45:36;20.10;99.90
18648;DHT22;9453;50.294;18.644;2022-08-01T06:48:04;20.10;99.90
18648;DHT22;9453;50.294;18.644;2022-08-01T06:50:31;20.10;99.90
18648;DHT22;9453;50.294;18.644;2022-08-01T06:53:00;20.10;99.90
18648;DHT22;9453;50.294;18.644;2022-08-01T06:55:26;20.20;99.90
18648;DHT22;9453;50.294;18.644;2022-08-01T06:57:53;20.30;99.90
18648;DHT22;9453;50.294;18.644;2022-08-01T07:00:22;20.40;99.90
18648;DHT22;9453;50.294;18.644;2022-08-01T07:02:49;20.40;99.90
18648;DHT22;9453;50.294;18.644;2022-08-01T07:05:17;20.50;99.90
18648;DHT22;9453;50.294;18.644;2022-08-01T07:07:44;20.60;99.90
18648;DHT22;9453;50.294;18.644;2022-08-01T07:10:12;20.70;99.90
18648;DHT22;9453;50.294;18.644;2022-08-01T07:12:39;20.90;99.90
18648;DHT22;9453;50.294;18.644;2022-08-01T07:15:07;21.00;99.90
18648;DHT22;9453;50.294;18.644;2022-08-01T07:17:37;21.10;99.90
18648;DHT22;9453;50.294;18.644;2022-08-01T07:20:05;21.30;99.90
18648;DHT22;9453;50.294;18.644;2022-08-01T07:22:32;21.50;99.90
18648;DHT22;9453;50.294;18.644;2022-08-01T07:24:59;21.70;99.90
18648;DHT22;9453;50.294;18.644;2022-08-01T07:27:27;21.90;99.90
18648;DHT22;9453;50.294;18.644;2022-08-01T07:29:54;22.00;99.90
18648;DHT22;9453;50.294;18.644;2022-08-01T07:32:21;22.20;99.90
18648;DHT22;9453;50.294;18.644;2022-08-01T07:34:50;22.30;99.90
18648;DHT22;9453;50.294;18.644;2022-08-01T07:37:17;22.40;99.90
18648;DHT22;9453;50.294;18.644;2022-08-01T07:39:44;22.50;99.90
18648;DHT22;9453;50.294;18.644;2022-08-01T07:42:11;22.50;99.90
18648;DHT22;9453;50.294;18.644;2022-08-01T07:44:40;22.50;99.10
18648;DHT22;9453;50.294;18.644;2022-08-01T07:47:07;22.60;98.60
18648;DHT22;9453;50.294;18.644;2022-08-01T07:49:34;22.60;98.60
18648;DHT22;9453;50.294;18.644;2022-08-01T07:52:02;22.60;98.30
18648;DHT22;9453;50.294;18.644;2022-08-01T07:54:28;22.60;98.00
18648;DHT22;9453;50.294;18.644;2022-08-01T07:56:55;22.60;97.70
18648;DHT22;9453;50.294;18.644;2022-08-01T07:59:22;22.50;97.10
18648;DHT22;9453;50.294;18.644;2022-08-01T08:01:51;22.50;97.10
18648;DHT22;9453;50.294;18.644;2022-08-01T08:04:18;22.60;97.20
18648;DHT22;9453;50.294;18.644;2022-08-01T08:06:45;22.70;97.30
18648;DHT22;9453;50.294;18.644;2022-08-01T08:09:13;22.80;97.00
18648;DHT22;9453;50.294;18.644;2022-08-01T08:11:41;22.90;96.70
18648;DHT22;9453;50.294;18.644;2022-08-01T08:14:08;23.00;96.50
18648;DHT22;9453;50.294;18.644;2022-08-01T08:16:35;23.10;96.10
18648;DHT22;9453;50.294;18.644;2022-08-01T08:19:04;23.10;95.80
18648;DHT22;9453;50.294;18.644;2022-08-01T08:21:31;23.20;95.70
18648;DHT22;9453;50.294;18.644;2022-08-01T08:23:58;23.40;95.40
18648;DHT22;9453;50.294;18.644;2022-08-01T08:26:42;23.50;94.70
18648;DHT22;9453;50.294;18.644;2022-08-01T08:29:09;23.50;93.40
18648;DHT22;9453;50.294;18.644;2022-08-01T08:31:36;23.70;92.80
18648;DHT22;9453;50.294;18.644;2022-08-01T08:34:04;23.70;92.00
18648;DHT22;9453;50.294;18.644;2022-08-01T08:36:31;23.70;90.30
18648;DHT22;9453;50.294;18.644;2022-08-01T08:38:58;23.70;90.20
18648;DHT22;9453;50.294;18.644;2022-08-01T08:41:26;23.80;90.80
18648;DHT22;9453;50.294;18.644;2022-08-01T08:43:53;23.80;90.70
18648;DHT22;9453;50.294;18.644;2022-08-01T08:46:22;23.80;90.50
18648;DHT22;9453;50.294;18.644;2022-08-01T08:48:51;23.80;90.70
18648;DHT22;9453;50.294;18.644;2022-08-01T08:51:21;23.80;90.40
18648;DHT22;9453;50.294;18.644;2022-08-01T08:53:51;23.80;90.60
18648;DHT22;9453;50.294;18.644;2022-08-01T08:56:20;23.80;90.60
18648;DHT22;9453;50.294;18.644;2022-08-01T08:58:48;23.70;90.10
18648;DHT22;9453;50.294;18.644;2022-08-01T09:01:15;23.60;90.20
18648;DHT22;9453;50.294;18.644;2022-08-01T09:03:43;23.60;90.10
18648;DHT22;9453;50.294;18.644;2022-08-01T09:06:10;23.60;90.10
18648;DHT22;9453;50.294;18.644;2022-08-01T09:08:39;23.50;90.00
18648;DHT22;9453;50.294;18.644;2022-08-01T09:11:06;23.60;90.40
18648;DHT22;9453;50.294;18.644;2022-08-01T09:13:33;23.60;90.40
18648;DHT22;9453;50.294;18.644;2022-08-01T09:16:00;23.60;90.70
18648;DHT22;9453;50.294;18.644;2022-08-01T09:18:28;23.80;90.80
18648;DHT22;9453;50.294;18.644;2022-08-01T09:21:14;23.80;90.90
18648;DHT22;9453;50.294;18.644;2022-08-01T09:23:45;23.90;90.90
18648;DHT22;9453;50.294;18.644;2022-08-01T09:26:13;24.00;91.00
18648;DHT22;9453;50.294;18.644;2022-08-01T09:28:41;24.00;90.40
18648;DHT22;9453;50.294;18.644;2022-08-01T09:31:09;24.10;90.10
18648;DHT22;9453;50.294;18.644;2022-08-01T09:33:49;24.10;88.80
18648;DHT22;9453;50.294;18.644;2022-08-01T09:36:17;24.10;87.00
18648;DHT22;9453;50.294;18.644;2022-08-01T09:38:46;24.20;86.90
18648;DHT22;9453;50.294;18.644;2022-08-01T09:41:13;24.20;86.60
18648;DHT22;9453;50.294;18.644;2022-08-01T09:43:47;24.30;86.70
18648;DHT22;9453;50.294;18.644;2022-08-01T09:46:14;24.30;87.80
18648;DHT22;9453;50.294;18.644;2022-08-01T09:48:54;24.40;88.30
18648;DHT22;9453;50.294;18.644;2022-08-01T09:51:28;24.60;87.60
18648;DHT22;9453;50.294;18.644;2022-08-01T09:53:57;24.80;87.20
18648;DHT22;9453;50.294;18.644;2022-08-01T09:56:24;24.90;85.80
18648;DHT22;9453;50.294;18.644;2022-08-01T09:58:53;25.10;84.70
18648;DHT22;9453;50.294;18.644;2022-08-01T10:01:21;25.20;84.10
18648;DHT22;9453;50.294;18.644;2022-08-01T10:04:06;25.20;82.60
18648;DHT22;9453;50.294;18.644;2022-08-01T10:06:34;25.30;81.60
18648;DHT22;9453;50.294;18.644;2022-08-01T10:09:02;25.40;81.10
18648;DHT22;9453;50.294;18.644;2022-08-01T10:11:29;25.50;81.80
18648;DHT22;9453;50.294;18.644;2022-08-01T10:13:59;25.50;79.00
18648;DHT22;9453;50.294;18.644;2022-08-01T10:16:26;25.60;78.40
18648;DHT22;9453;50.294;18.644;2022-08-01T10:18:54;25.70;79.10
18648;DHT22;9453;50.294;18.644;2022-08-01T10:21:22;25.70;78.20
18648;DHT22;9453;50.294;18.644;2022-08-01T10:23:54;25.80;79.50
18648;DHT22;9453;50.294;18.644;2022-08-01T10:26:25;25.70;78.80
18648;DHT22;9453;50.294;18.644;2022-08-01T10:28:53;25.50;78.00
18648;DHT22;9453;50.294;18.644;2022-08-01T10:31:20;25.40;78.70
18648;DHT22;9453;50.294;18.644;2022-08-01T10:33:49;25.10;79.30
18648;DHT22;9453;50.294;18.644;2022-08-01T10:36:18;24.80;81.30
18648;DHT22;9453;50.294;18.644;2022-08-01T10:38:46;24.50;83.20
18648;DHT22;9453;50.294;18.644;2022-08-01T10:41:13;24.30;82.80
18648;DHT22;9453;50.294;18.644;2022-08-01T10:43:43;24.10;83.80
18648;DHT22;9453;50.294;18.644;2022-08-01T10:46:10;24.00;84.90
18648;DHT22;9453;50.294;18.644;2022-08-01T10:48:43;23.70;86.60
18648;DHT22;9453;50.294;18.644;2022-08-01T10:51:11;23.60;87.90
18648;DHT22;9453;50.294;18.644;2022-08-01T10:53:46;23.40;87.90
18648;DHT22;9453;50.294;18.644;2022-08-01T10:56:14;23.20;90.30
18648;DHT22;9453;50.294;18.644;2022-08-01T10:58:46;23.00;89.90
18648;DHT22;9453;50.294;18.644;2022-08-01T11:01:22;22.90;91.40
18648;DHT22;9453;50.294;18.644;2022-08-01T11:04:13;22.90;92.80
18648;DHT22;9453;50.294;18.644;2022-08-01T11:06:51;22.90;93.90
18648;DHT22;9453;50.294;18.644;2022-08-01T11:09:30;22.90;94.50
18648;DHT22;9453;50.294;18.644;2022-08-01T11:11:59;22.90;94.30
18648;DHT22;9453;50.294;18.644;2022-08-01T11:14:30;23.00;94.60
18648;DHT22;9453;50.294;18.644;2022-08-01T11:17:30;23.00;94.90
18648;DHT22;9453;50.294;18.644;2022-08-01T11:20:06;23.20;95.00
18648;DHT22;9453;50.294;18.644;2022-08-01T11:28:44;24.00;93.50
18648;DHT22;9453;50.294;18.644;2022-08-01T11:31:33;24.40;92.70
18648;DHT22;9453;50.294;18.644;2022-08-01T11:34:00;24.70;91.80
18648;DHT22;9453;50.294;18.644;2022-08-01T11:36:27;24.80;91.30
18648;DHT22;9453;50.294;18.644;2022-08-01T11:39:15;24.80;90.30
18648;DHT22;9453;50.294;18.644;2022-08-01T11:41:43;25.00;90.10
18648;DHT22;9453;50.294;18.644;2022-08-01T11:44:12;25.00;90.20
18648;DHT22;9453;50.294;18.644;2022-08-01T11:47:04;25.00;89.90
18648;DHT22;9453;50.294;18.644;2022-08-01T11:49:56;25.00;90.10
18648;DHT22;9453;50.294;18.644;2022-08-01T11:52:26;25.00;88.70
18648;DHT22;9453;50.294;18.644;2022-08-01T11:54:55;25.10;89.60
18648;DHT22;9453;50.294;18.644;2022-08-01T11:57:23;25.00;88.00
18648;DHT22;9453;50.294;18.644;2022-08-01T11:59:53;25.10;88.80
18648;DHT22;9453;50.294;18.644;2022-08-01T12:02:23;25.20;89.50
18648;DHT22;9453;50.294;18.644;2022-08-01T12:04:57;25.30;89.10
18648;DHT22;9453;50.294;18.644;2022-08-01T12:07:26;25.20;88.40
18648;DHT22;9453;50.294;18.644;2022-08-01T12:09:58;25.10;88.20
18648;DHT22;9453;50.294;18.644;2022-08-01T12:12:26;25.10;89.40
18648;DHT22;9453;50.294;18.644;2022-08-01T12:14:54;25.00;90.10
18648;DHT22;9453;50.294;18.644;2022-08-01T12:17:29;24.90;90.90
18648;DHT22;9453;50.294;18.644;2022-08-01T12:19:57;24.90;90.40
18648;DHT22;9453;50.294;18.644;2022-08-01T12:22:25;24.80;89.80
18648;DHT22;9453;50.294;18.644;2022-08-01T12:24:52;24.70;89.60
18648;DHT22;9453;50.294;18.644;2022-08-01T12:27:27;24.60;88.60
18648;DHT22;9453;50.294;18.644;2022-08-01T12:29:55;24.40;89.30
18648;DHT22;9453;50.294;18.644;2022-08-01T12:32:25;24.40;88.80
18648;DHT22;9453;50.294;18.644;2022-08-01T12:34:55;24.40;90.20
18648;DHT22;9453;50.294;18.644;2022-08-01T12:37:23;24.50;87.90
18648;DHT22;9453;50.294;18.644;2022-08-01T12:39:50;24.50;88.20
18648;DHT22;9453;50.294;18.644;2022-08-01T12:42:17;24.50;86.60
18648;DHT22;9453;50.294;18.644;2022-08-01T12:44:45;24.60;86.50
18648;DHT22;9453;50.294;18.644;2022-08-01T12:47:14;24.60;87.80
18648;DHT22;9453;50.294;18.644;2022-08-01T12:49:43;24.70;88.00
18648;DHT22;9453;50.294;18.644;2022-08-01T12:52:12;24.90;86.40
18648;DHT22;9453;50.294;18.644;2022-08-01T12:55:02;25.20;86.00
18648;DHT22;9453;50.294;18.644;2022-08-01T12:57:30;25.50;86.00
18648;DHT22;9453;50.294;18.644;2022-08-01T13:00:06;25.90;83.40
18648;DHT22;9453;50.294;18.644;2022-08-01T13:02:33;26.10;83.50
18648;DHT22;9453;50.294;18.644;2022-08-01T13:05:00;26.20;80.10
18648;DHT22;9453;50.294;18.644;2022-08-01T13:07:37;26.20;78.50
18648;DHT22;9453;50.294;18.644;2022-08-01T13:10:04;25.90;78.20
18648;DHT22;9453;50.294;18.644;2022-08-01T13:12:31;26.10;79.30
18648;DHT22;9453;50.294;18.644;2022-08-01T13:14:58;26.00;77.80
18648;DHT22;9453;50.294;18.644;2022-08-01T13:17:32;26.00;77.80
18648;DHT22;9453;50.294;18.644;2022-08-01T13:20:02;26.10;79.30
18648;DHT22;9453;50.294;18.644;2022-08-01T13:22:33;26.10;79.30
18648;DHT22;9453;50.294;18.644;2022-08-01T13:25:11;26.10;78.30
18648;DHT22;9453;50.294;18.644;2022-08-01T13:27:39;25.80;78.50
18648;DHT22;9453;50.294;18.644;2022-08-01T13:30:13;25.70;79.70
18648;DHT22;9453;50.294;18.644;2022-08-01T13:32:41;25.60;80.80
18648;DHT22;9453;50.294;18.644;2022-08-01T13:35:11;25.50;80.60
18648;DHT22;9453;50.294;18.644;2022-08-01T13:37:40;25.40;81.90
18648;DHT22;9453;50.294;18.644;2022-08-01T13:40:09;25.50;82.90
18648;DHT22;9453;50.294;18.644;2022-08-01T13:42:37;25.60;81.80
18648;DHT22;9453;50.294;18.644;2022-08-01T13:45:06;25.80;81.80
18648;DHT22;9453;50.294;18.644;2022-08-01T13:47:36;25.90;79.20
18648;DHT22;9453;50.294;18.644;2022-08-01T13:50:03;26.00;77.90
18648;DHT22;9453;50.294;18.644;2022-08-01T13:52:30;26.00;77.90
18648;DHT22;9453;50.294;18.644;2022-08-01T13:54:57;26.30;79.70
18648;DHT22;9453;50.294;18.644;2022-08-01T13:57:24;26.60;80.70
18648;DHT22;9453;50.294;18.644;2022-08-01T13:59:53;26.80;78.40
18648;DHT22;9453;50.294;18.644;2022-08-01T14:02:20;27.00;78.10
18648;DHT22;9453;50.294;18.644;2022-08-01T14:04:47;27.20;77.70
18648;DHT22;9453;50.294;18.644;2022-08-01T14:07:14;27.30;74.40
18648;DHT22;9453;50.294;18.644;2022-08-01T14:09:41;27.50;73.50
18648;DHT22;9453;50.294;18.644;2022-08-01T14:12:08;27.60;73.10
18648;DHT22;9453;50.294;18.644;2022-08-01T14:14:35;27.60;73.60
18648;DHT22;9453;50.294;18.644;2022-08-01T14:17:03;27.70;74.10
18648;DHT22;9453;50.294;18.644;2022-08-01T14:19:30;27.60;72.70
18648;DHT22;9453;50.294;18.644;2022-08-01T14:21:57;27.50;74.50
18648;DHT22;9453;50.294;18.644;2022-08-01T14:24:24;27.70;75.70
18648;DHT22;9453;50.294;18.644;2022-08-01T14:26:52;27.70;72.30
18648;DHT22;9453;50.294;18.644;2022-08-01T14:29:19;27.30;73.00
18648;DHT22;9453;50.294;18.644;2022-08-01T14:31:46;27.40;70.70
18648;DHT22;9453;50.294;18.644;2022-08-01T14:34:14;27.10;71.20
18648;DHT22;9453;50.294;18.644;2022-08-01T14:36:41;27.10;72.90
18648;DHT22;9453;50.294;18.644;2022-08-01T14:39:08;27.10;73.90
18648;DHT22;9453;50.294;18.644;2022-08-01T14:41:36;27.10;74.70
18648;DHT22;9453;50.294;18.644;2022-08-01T14:44:03;27.00;75.70
18648;DHT22;9453;50.294;18.644;2022-08-01T14:46:30;26.90;76.70
18648;DHT22;9453;50.294;18.644;2022-08-01T14:48:57;26.90;76.60
18648;DHT22;9453;50.294;18.644;2022-08-01T14:51:25;26.80;76.60
18648;DHT22;9453;50.294;18.644;2022-08-01T14:53:52;26.70;76.80
18648;DHT22;9453;50.294;18.644;2022-08-01T14:56:19;26.60;77.80
18648;DHT22;9453;50.294;18.644;2022-08-01T14:58:46;26.60;78.20
18648;DHT22;9453;50.294;18.644;2022-08-01T15:01:15;26.50;79.10
18648;DHT22;9453;50.294;18.644;2022-08-01T15:03:43;26.50;80.10
18648;DHT22;9453;50.294;18.644;2022-08-01T15:06:11;26.60;80.50
18648;DHT22;9453;50.294;18.644;2022-08-01T15:08:39;26.70;80.20
18648;DHT22;9453;50.294;18.644;2022-08-01T15:11:06;26.80;80.00
18648;DHT22;9453;50.294;18.644;2022-08-01T15:13:34;26.80;78.90
18648;DHT22;9453;50.294;18.644;2022-08-01T15:16:00;26.80;79.00
18648;DHT22;9453;50.294;18.644;2022-08-01T15:18:28;27.00;79.50
18648;DHT22;9453;50.294;18.644;2022-08-01T15:20:55;27.10;78.80
18648;DHT22;9453;50.294;18.644;2022-08-01T15:23:22;27.20;78.60
18648;DHT22;9453;50.294;18.644;2022-08-01T15:25:51;27.70;79.10
18648;DHT22;9453;50.294;18.644;2022-08-01T15:28:17;28.00;75.60
18648;DHT22;9453;50.294;18.644;2022-08-01T15:30:45;28.30;74.70
18648;DHT22;9453;50.294;18.644;2022-08-01T15:33:12;28.80;73.10
18648;DHT22;9453;50.294;18.644;2022-08-01T15:35:39;29.00;71.60
18648;DHT22;9453;50.294;18.644;2022-08-01T15:38:06;29.20;70.70
18648;DHT22;9453;50.294;18.644;2022-08-01T15:40:33;29.20;69.50
18648;DHT22;9453;50.294;18.644;2022-08-01T15:43:02;29.50;70.40
18648;DHT22;9453;50.294;18.644;2022-08-01T15:45:29;29.70;68.60
18648;DHT22;9453;50.294;18.644;2022-08-01T15:47:55;29.80;67.80
18648;DHT22;9453;50.294;18.644;2022-08-01T15:50:22;29.60;66.90
18648;DHT22;9453;50.294;18.644;2022-08-01T15:52:49;29.30;66.90
18648;DHT22;9453;50.294;18.644;2022-08-01T15:55:16;29.00;67.30
18648;DHT22;9453;50.294;18.644;2022-08-01T15:57:43;28.80;68.20
18648;DHT22;9453;50.294;18.644;2022-08-01T16:00:12;28.50;69.70
18648;DHT22;9453;50.294;18.644;2022-08-01T16:02:39;28.30;70.40
18648;DHT22;9453;50.294;18.644;2022-08-01T16:05:07;28.00;72.00
18648;DHT22;9453;50.294;18.644;2022-08-01T16:07:34;27.80;71.80
18648;DHT22;9453;50.294;18.644;2022-08-01T16:10:01;27.60;72.80
18648;DHT22;9453;50.294;18.644;2022-08-01T16:12:28;27.50;73.40
18648;DHT22;9453;50.294;18.644;2022-08-01T16:14:55;27.40;73.50
18648;DHT22;9453;50.294;18.644;2022-08-01T16:17:23;27.20;73.70
18648;DHT22;9453;50.294;18.644;2022-08-01T16:19:50;27.00;74.40
18648;DHT22;9453;50.294;18.644;2022-08-01T16:22:20;26.90;75.30
18648;DHT22;9453;50.294;18.644;2022-08-01T16:24:46;26.70;75.50
18648;DHT22;9453;50.294;18.644;2022-08-01T16:27:13;26.50;76.40
18648;DHT22;9453;50.294;18.644;2022-08-01T16:29:40;26.40;76.80
18648;DHT22;9453;50.294;18.644;2022-08-01T16:32:07;26.20;77.20
18648;DHT22;9453;50.294;18.644;2022-08-01T16:34:35;26.10;78.20
18648;DHT22;9453;50.294;18.644;2022-08-01T16:37:03;26.10;79.00
18648;DHT22;9453;50.294;18.644;2022-08-01T16:39:30;26.00;79.40
18648;DHT22;9453;50.294;18.644;2022-08-01T16:41:57;26.00;80.00
18648;DHT22;9453;50.294;18.644;2022-08-01T16:44:24;26.00;80.40
18648;DHT22;9453;50.294;18.644;2022-08-01T16:46:50;26.00;80.80
18648;DHT22;9453;50.294;18.644;2022-08-01T16:49:18;25.80;80.60
18648;DHT22;9453;50.294;18.644;2022-08-01T16:51:46;25.70;80.90
18648;DHT22;9453;50.294;18.644;2022-08-01T16:54:13;25.60;81.80
18648;DHT22;9453;50.294;18.644;2022-08-01T16:56:40;25.50;82.40
18648;DHT22;9453;50.294;18.644;2022-08-01T16:59:06;25.40;82.30
18648;DHT22;9453;50.294;18.644;2022-08-01T17:01:33;25.30;81.70
18648;DHT22;9453;50.294;18.644;2022-08-01T17:04:01;25.20;80.60
18648;DHT22;9453;50.294;18.644;2022-08-01T17:06:28;25.20;81.00
18648;DHT22;9453;50.294;18.644;2022-08-01T17:08:58;25.10;80.90
18648;DHT22;9453;50.294;18.644;2022-08-01T17:11:25;25.20;81.20
18648;DHT22;9453;50.294;18.644;2022-08-01T17:13:52;25.20;81.20
18648;DHT22;9453;50.294;18.644;2022-08-01T17:16:19;25.20;81.60
18648;DHT22;9453;50.294;18.644;2022-08-01T17:18:47;25.10;81.80
18648;DHT22;9453;50.294;18.644;2022-08-01T17:21:14;25.10;82.40
18648;DHT22;9453;50.294;18.644;2022-08-01T17:23:41;25.00;82.90
18648;DHT22;9453;50.294;18.644;2022-08-01T17:26:09;25.00;83.60
18648;DHT22;9453;50.294;18.644;2022-08-01T17:28:37;24.90;84.00
18648;DHT22;9453;50.294;18.644;2022-08-01T17:31:04;24.70;84.50
18648;DHT22;9453;50.294;18.644;2022-08-01T17:33:31;24.70;85.30
18648;DHT22;9453;50.294;18.644;2022-08-01T17:35:57;24.60;85.50
18648;DHT22;9453;50.294;18.644;2022-08-01T17:38:24;24.40;86.10
18648;DHT22;9453;50.294;18.644;2022-08-01T17:40:51;24.30;87.00
18648;DHT22;9453;50.294;18.644;2022-08-01T17:43:19;24.10;87.40
18648;DHT22;9453;50.294;18.644;2022-08-01T17:45:46;24.00;88.20
18648;DHT22;9453;50.294;18.644;2022-08-01T17:48:15;23.90;89.10
18648;DHT22;9453;50.294;18.644;2022-08-01T17:50:42;23.80;89.80
18648;DHT22;9453;50.294;18.644;2022-08-01T17:53:10;23.70;90.20
18648;DHT22;9453;50.294;18.644;2022-08-01T17:55:37;23.60;90.50
18648;DHT22;9453;50.294;18.644;2022-08-01T17:58:06;23.50;90.90
18648;DHT22;9453;50.294;18.644;2022-08-01T18:00:35;23.40;91.30
18648;DHT22;9453;50.294;18.644;2022-08-01T18:03:03;23.30;91.60
18648;DHT22;9453;50.294;18.644;2022-08-01T18:05:30;23.30;92.00
18648;DHT22;9453;50.294;18.644;2022-08-01T18:07:57;23.20;92.40
18648;DHT22;9453;50.294;18.644;2022-08-01T18:10:25;23.10;92.80
18648;DHT22;9453;50.294;18.644;2022-08-01T18:12:52;23.00;93.10
18648;DHT22;9453;50.294;18.644;2022-08-01T18:15:19;22.90;93.50
18648;DHT22;9453;50.294;18.644;2022-08-01T18:17:49;22.90;93.80
18648;DHT22;9453;50.294;18.644;2022-08-01T18:20:16;22.70;94.10
18648;DHT22;9453;50.294;18.644;2022-08-01T18:22:43;22.60;94.50
18648;DHT22;9453;50.294;18.644;2022-08-01T18:25:10;22.60;94.90
18648;DHT22;9453;50.294;18.644;2022-08-01T18:27:36;22.50;95.40
18648;DHT22;9453;50.294;18.644;2022-08-01T18:30:05;22.40;96.00
18648;DHT22;9453;50.294;18.644;2022-08-01T18:32:32;22.30;96.50
18648;DHT22;9453;50.294;18.644;2022-08-01T18:35:00;22.20;97.20
18648;DHT22;9453;50.294;18.644;2022-08-01T18:37:27;22.20;97.80
18648;DHT22;9453;50.294;18.644;2022-08-01T18:39:54;22.10;98.20
18648;DHT22;9453;50.294;18.644;2022-08-01T18:42:21;22.00;98.60
18648;DHT22;9453;50.294;18.644;2022-08-01T18:44:47;21.90;99.20
18648;DHT22;9453;50.294;18.644;2022-08-01T18:47:14;21.80;99.70
18648;DHT22;9453;50.294;18.644;2022-08-01T18:49:41;21.70;99.90
18648;DHT22;9453;50.294;18.644;2022-08-01T18:52:09;21.60;99.90
18648;DHT22;9453;50.294;18.644;2022-08-01T18:54:36;21.60;99.90
18648;DHT22;9453;50.294;18.644;2022-08-01T18:57:03;21.50;99.90
18648;DHT22;9453;50.294;18.644;2022-08-01T18:59:30;21.50;99.90
18648;DHT22;9453;50.294;18.644;2022-08-01T19:02:03;21.40;99.90
18648;DHT22;9453;50.294;18.644;2022-08-01T19:04:30;21.40;99.90
18648;DHT22;9453;50.294;18.644;2022-08-01T19:06:57;21.40;99.90
18648;DHT22;9453;50.294;18.644;2022-08-01T19:09:25;21.40;99.90
18648;DHT22;9453;50.294;18.644;2022-08-01T19:11:52;21.30;99.90
18648;DHT22;9453;50.294;18.644;2022-08-01T19:14:19;21.30;99.90
18648;DHT22;9453;50.294;18.644;2022-08-01T19:16:46;21.30;99.90
18648;DHT22;9453;50.294;18.644;2022-08-01T19:19:12;21.30;99.90
18648;DHT22;9453;50.294;18.644;2022-08-01T19:21:39;21.20;99.90
18648;DHT22;9453;50.294;18.644;2022-08-01T19:24:07;21.20;99.90
18648;DHT22;9453;50.294;18.644;2022-08-01T19:26:46;21.20;99.90
18648;DHT22;9453;50.294;18.644;2022-08-01T19:29:17;21.10;99.90
18648;DHT22;9453;50.294;18.644;2022-08-01T19:31:46;21.10;99.90
18648;DHT22;9453;50.294;18.644;2022-08-01T19:34:13;21.10;99.90
18648;DHT22;9453;50.294;18.644;2022-08-01T19:36:43;21.00;99.90
18648;DHT22;9453;50.294;18.644;2022-08-01T19:39:10;21.00;99.90
18648;DHT22;9453;50.294;18.644;2022-08-01T19:41:39;21.00;99.90
18648;DHT22;9453;50.294;18.644;2022-08-01T19:44:11;21.00;99.90